createdAt,value
2023-04-18T00:00:41.206Z,99885.47
2023-04-18T00:03:27.088Z,99915.75
2023-04-18T00:06:12.945Z,99924.06
2023-04-18T00:08:57.366Z,99919.09
2023-04-18T00:11:41.439Z,99916.72
2023-04-18T00:14:25.316Z,99919.38
2023-04-18T00:17:10.478Z,99918.41
2023-04-18T00:19:56.574Z,99921.97
2023-04-18T00:22:42.630Z,99880.56
2023-04-18T00:25:26.970Z,99917.09
2023-04-18T00:28:11.123Z,99907.28
2023-04-18T00:30:55.087Z,99891.50
2023-04-18T00:33:38.887Z,99895.00
2023-04-18T00:36:24.081Z,99874.53
2023-04-18T00:39:08.064Z,99851.91
2023-04-18T00:41:52.017Z,99889.50
2023-04-18T00:44:35.808Z,99878.09
2023-04-18T00:47:19.921Z,99888.94
2023-04-18T00:50:04.173Z,99890.03
2023-04-18T00:52:50.104Z,99880.00
2023-04-18T00:55:34.320Z,99871.22
2023-04-18T00:58:20.101Z,99871.69
2023-04-18T01:01:04.140Z,99868.97
2023-04-18T01:03:48.246Z,99869.13
2023-04-18T01:06:32.254Z,99870.13
2023-04-18T01:09:17.467Z,99870.59
2023-04-18T01:12:01.978Z,99881.84
2023-04-18T01:14:45.823Z,99846.50
2023-04-18T01:17:29.771Z,99875.66
2023-04-18T01:20:16.944Z,99876.94
2023-04-18T01:23:01.330Z,99877.31
2023-04-18T01:25:47.090Z,99890.19
2023-04-18T01:28:31.001Z,99887.84
2023-04-18T01:31:14.903Z,99877.66
2023-04-18T01:33:58.789Z,99861.97
2023-04-18T01:36:42.676Z,99855.50
2023-04-18T01:39:29.303Z,99809.47
2023-04-18T01:42:14.605Z,99842.41
2023-04-18T01:44:58.556Z,99846.19
2023-04-18T01:47:42.524Z,99841.69
2023-04-18T01:50:29.189Z,99827.91
2023-04-18T01:53:13.021Z,99821.59
2023-04-18T01:55:57.802Z,99839.91
2023-04-18T01:58:43.005Z,99838.59
2023-04-18T02:01:26.984Z,99718.91
2023-04-18T02:04:10.928Z,99831.00
2023-04-18T02:06:55.495Z,99786.63
2023-04-18T02:09:39.431Z,99815.69
2023-04-18T02:12:23.687Z,99836.81
2023-04-18T02:15:10.703Z,99836.56
2023-04-18T02:17:55.445Z,99831.00
2023-04-18T02:20:40.704Z,99834.25
2023-04-18T02:23:24.691Z,99829.16
2023-04-18T02:26:08.595Z,99828.69
2023-04-18T02:28:52.758Z,99836.66
2023-04-18T02:31:41.770Z,99825.88
2023-04-18T02:34:25.829Z,99826.66
2023-04-18T02:37:09.785Z,99820.16
2023-04-18T02:39:55.358Z,99832.53
2023-04-18T02:42:39.191Z,99832.16
2023-04-18T02:45:23.224Z,99836.09
2023-04-18T02:48:08.947Z,99830.91
2023-04-18T02:50:53.056Z,99830.28
2023-04-18T02:53:37.014Z,99836.03
2023-04-18T02:56:20.899Z,99828.28
2023-04-18T02:59:23.301Z,99824.03
2023-04-18T03:02:25.788Z,99795.06
2023-04-18T03:05:16.707Z,99839.22
2023-04-18T03:08:01.017Z,99819.22
2023-04-18T03:10:45.665Z,99828.69
2023-04-18T03:13:29.820Z,99835.00
2023-04-18T03:16:14.885Z,99844.41
2023-04-18T03:19:00.013Z,99848.81
2023-04-18T03:21:45.689Z,99818.22
2023-04-18T03:24:29.708Z,99845.50
2023-04-18T03:27:17.060Z,99805.03
2023-04-18T03:30:02.675Z,99829.75
2023-04-18T03:32:50.110Z,99837.59
2023-04-18T03:35:34.113Z,99844.81
2023-04-18T03:38:19.456Z,99826.53
2023-04-18T03:41:03.269Z,99847.50
2023-04-18T03:43:51.035Z,99858.97
2023-04-18T03:46:35.155Z,99869.91
2023-04-18T03:49:20.010Z,99878.72
2023-04-18T03:52:04.713Z,99846.81
2023-04-18T03:54:50.294Z,99863.75
2023-04-18T03:57:36.992Z,99888.78
2023-04-18T04:00:25.311Z,99879.94
2023-04-18T04:03:16.677Z,99862.69
2023-04-18T04:06:03.518Z,99872.84
2023-04-18T04:08:47.432Z,99887.56
2023-04-18T04:11:37.381Z,99890.19
2023-04-18T04:14:24.668Z,99890.94
2023-04-18T04:17:10.568Z,99892.34
2023-04-18T04:19:56.135Z,99883.66
2023-04-18T04:22:40.117Z,99891.38
2023-04-18T04:25:24.818Z,99896.81
2023-04-18T04:28:13.328Z,99898.38
2023-04-18T04:31:10.333Z,99893.28
2023-04-18T04:33:55.370Z,99869.22
2023-04-18T04:36:41.331Z,99870.97
2023-04-18T04:39:28.270Z,99897.66
2023-04-18T04:42:49.222Z,99903.84
2023-04-18T04:45:41.581Z,99908.75
2023-04-18T04:48:25.682Z,99885.84
2023-04-18T04:51:10.850Z,99910.19
2023-04-18T04:53:54.732Z,99907.03
2023-04-18T04:56:39.437Z,99919.66
2023-04-18T04:59:23.668Z,99926.47
2023-04-18T05:02:09.168Z,99916.34
2023-04-18T05:04:53.401Z,99927.16
2023-04-18T05:07:37.260Z,99920.34
2023-04-18T05:10:21.821Z,99921.66
2023-04-18T05:13:05.750Z,99929.97
2023-04-18T05:15:49.694Z,99919.41
2023-04-18T05:18:35.113Z,99922.34
2023-04-18T05:21:19.058Z,99918.56
2023-04-18T05:24:02.930Z,99923.44
2023-04-18T05:26:46.785Z,99915.91
2023-04-18T05:29:30.664Z,99925.03
2023-04-18T05:32:14.872Z,99931.06
2023-04-18T05:35:00.502Z,99926.25
2023-04-18T05:37:44.514Z,99925.06
2023-04-18T05:40:28.569Z,99924.75
2023-04-18T05:43:12.761Z,99924.25
2023-04-18T05:45:58.082Z,99937.41
2023-04-18T05:48:42.086Z,99934.56
2023-04-18T05:51:28.748Z,99934.59
2023-04-18T05:54:12.969Z,99925.78
2023-04-18T05:56:58.776Z,99922.56
2023-04-18T05:59:42.689Z,99912.09
2023-04-18T06:02:27.186Z,99921.66
2023-04-18T06:05:11.670Z,99932.44
2023-04-18T06:07:57.468Z,99939.94
2023-04-18T06:10:41.441Z,99934.53
2023-04-18T06:13:26.780Z,99933.13
2023-04-18T06:16:10.588Z,99922.47
2023-04-18T06:18:55.095Z,99928.34
2023-04-18T06:21:39.908Z,99912.00
2023-04-18T06:24:25.262Z,99924.63
2023-04-18T06:27:17.534Z,99944.66
2023-04-18T06:30:06.137Z,99932.63
2023-04-18T06:32:50.686Z,99944.81
2023-04-18T06:35:35.083Z,99948.84
2023-04-18T06:38:19.769Z,99943.75
2023-04-18T06:41:05.487Z,99933.41
2023-04-18T06:44:02.823Z,99938.41
2023-04-18T06:46:48.249Z,99946.19
2023-04-18T06:49:32.497Z,99886.69
2023-04-18T06:52:16.776Z,99925.00
2023-04-18T06:55:00.894Z,99926.63
2023-04-18T06:57:46.330Z,99919.06
2023-04-18T07:00:30.397Z,99936.56
2023-04-18T07:03:14.669Z,99920.00
2023-04-18T07:05:58.733Z,99936.34
2023-04-18T07:08:42.863Z,99940.81
2023-04-18T07:11:27.226Z,99940.47
2023-04-18T07:14:13.317Z,99941.47
2023-04-18T07:16:57.741Z,99938.91
2023-04-18T07:19:42.399Z,99950.84
2023-04-18T07:22:26.265Z,99937.13
2023-04-18T07:25:10.818Z,99938.28
2023-04-18T07:27:54.647Z,99947.16
2023-04-18T07:30:39.855Z,99945.47
2023-04-18T07:33:23.743Z,99951.78
2023-04-18T07:36:08.307Z,99951.09
2023-04-18T07:38:52.595Z,99958.09
2023-04-18T07:41:36.773Z,99955.44
2023-04-18T07:44:21.575Z,99947.69
2023-04-18T07:47:10.473Z,99956.94
2023-04-18T07:49:54.314Z,99959.66
2023-04-18T07:52:39.392Z,99959.91
2023-04-18T07:55:23.665Z,99948.13
2023-04-18T07:58:07.551Z,99967.97
2023-04-18T08:00:51.379Z,99969.66
2023-04-18T08:03:37.264Z,99973.13
2023-04-18T08:06:21.572Z,99863.25
2023-04-18T08:09:05.713Z,99976.63
2023-04-18T08:11:49.645Z,99977.94
2023-04-18T08:14:33.661Z,99976.03
2023-04-18T08:17:17.583Z,99968.63
2023-04-18T08:20:06.925Z,99977.47
2023-04-18T08:25:41.206Z,100005.44
2023-04-18T08:28:25.029Z,100006.44
2023-04-18T08:31:13.486Z,100003.34
2023-04-18T08:33:57.460Z,99983.66
2023-04-18T08:36:42.789Z,99995.94
2023-04-18T08:39:26.666Z,99989.59
2023-04-18T08:42:11.864Z,99994.75
2023-04-18T08:44:56.134Z,99996.22
2023-04-18T08:47:40.004Z,100001.97
2023-04-18T08:50:24.064Z,99999.31
2023-04-18T08:53:09.550Z,100006.66
2023-04-18T08:55:55.285Z,99987.72
2023-04-18T08:58:39.049Z,100012.16
2023-04-18T09:01:23.068Z,99986.88
2023-04-18T09:04:08.029Z,100008.22
2023-04-18T09:06:53.799Z,99986.09
2023-04-18T09:09:47.906Z,100009.13
2023-04-18T09:12:32.788Z,100007.97
2023-04-18T09:15:19.140Z,100012.47
2023-04-18T09:18:03.555Z,99996.03
2023-04-18T09:20:49.901Z,99993.19
2023-04-18T09:23:33.816Z,99996.59
2023-04-18T09:26:33.936Z,99985.84
2023-04-18T09:29:18.690Z,99981.56
2023-04-18T09:32:03.264Z,99981.81
2023-04-18T09:34:47.350Z,99986.03
2023-04-18T09:37:31.203Z,99982.19
2023-04-18T09:40:18.156Z,99973.91
2023-04-18T09:43:19.378Z,99951.50
2023-04-18T09:46:04.897Z,99951.50
2023-04-18T09:48:48.819Z,99943.34
2023-04-18T09:51:34.380Z,99918.78
2023-04-18T09:54:19.867Z,99944.50
2023-04-18T09:57:07.537Z,99951.91
2023-04-18T09:59:56.306Z,99940.59
2023-04-18T10:02:49.012Z,99936.66
2023-04-18T10:05:34.914Z,99961.63
2023-04-18T10:08:19.097Z,99961.50
2023-04-18T10:11:03.144Z,99963.94
2023-04-18T10:13:50.613Z,99967.25
2023-04-18T10:16:37.591Z,99963.09
2023-04-18T10:19:24.261Z,99965.41
2023-04-18T10:22:08.333Z,99970.63
2023-04-18T10:24:57.142Z,99920.22
2023-04-18T10:28:00.504Z,99963.22
2023-04-18T10:31:03.023Z,99953.63
2023-04-18T10:34:00.746Z,99944.03
2023-04-18T10:37:06.279Z,99965.03
2023-04-18T10:39:58.624Z,99963.22
2023-04-18T10:43:01.026Z,99946.50
2023-04-18T10:45:45.034Z,99954.94
2023-04-18T10:48:31.390Z,99916.13
2023-04-18T10:51:19.115Z,99927.00
2023-04-18T10:54:04.952Z,99882.72
2023-04-18T10:56:55.394Z,99904.06
2023-04-18T10:59:41.195Z,99908.75
2023-04-18T11:02:28.910Z,99930.34
2023-04-18T11:05:13.818Z,99929.94
2023-04-18T11:07:59.007Z,99939.50
2023-04-18T11:10:42.904Z,99946.66
2023-04-18T11:13:26.976Z,99943.88
2023-04-18T11:16:10.814Z,99940.31
2023-04-18T11:18:55.108Z,99953.13
2023-04-18T11:21:38.978Z,99947.22
2023-04-18T11:24:25.137Z,99929.91
2023-04-18T11:27:11.142Z,99941.72
2023-04-18T11:29:55.855Z,99946.44
2023-04-18T11:32:40.095Z,99936.91
2023-04-18T11:35:24.258Z,99928.31
2023-04-18T11:38:09.031Z,99933.47
2023-04-18T11:40:54.285Z,99934.66
2023-04-18T11:43:38.278Z,99906.03
2023-04-18T11:46:22.127Z,99927.28
2023-04-18T11:49:06.199Z,99916.44
2023-04-18T11:51:49.942Z,99888.59
2023-04-18T11:54:38.682Z,99892.72
2023-04-18T11:57:26.461Z,99888.19
2023-04-18T12:00:12.564Z,99873.28
2023-04-18T12:02:57.001Z,99869.13
2023-04-18T12:05:41.220Z,99862.94
2023-04-18T12:08:26.860Z,99841.19
2023-04-18T12:11:10.796Z,99856.00
2023-04-18T12:13:58.158Z,99863.00
2023-04-18T12:16:43.173Z,99858.22
2023-04-18T12:19:28.801Z,99848.47
2023-04-18T12:22:16.930Z,99847.63
2023-04-18T12:25:10.541Z,99798.22
2023-04-18T12:27:58.044Z,99835.13
2023-04-18T12:30:43.844Z,99837.88
2023-04-18T12:33:28.020Z,99836.38
2023-04-18T12:36:11.852Z,99835.00
2023-04-18T12:38:56.031Z,99833.44
2023-04-18T12:41:39.854Z,99822.03
2023-04-18T12:44:24.692Z,99829.03
2023-04-18T12:47:10.774Z,99826.69
2023-04-18T12:49:54.619Z,99828.03
2023-04-18T12:52:40.869Z,99813.28
2023-04-18T12:55:25.947Z,99804.00
2023-04-18T12:58:09.919Z,99806.78
2023-04-18T13:00:53.855Z,99798.03
2023-04-18T13:03:39.233Z,99804.00
2023-04-18T13:06:24.534Z,99807.25
2023-04-18T13:09:09.257Z,99777.81
2023-04-18T13:11:53.096Z,99810.84
2023-04-18T13:14:36.934Z,99811.56
2023-04-18T13:17:21.006Z,99797.06
2023-04-18T13:20:07.561Z,99784.75
2023-04-18T13:22:51.422Z,99796.34
2023-04-18T13:25:35.477Z,99806.00
2023-04-18T13:28:19.244Z,99808.22
2023-04-18T13:31:03.219Z,99802.03
2023-04-18T13:33:47.010Z,99774.44
2023-04-18T13:36:34.834Z,99805.31
2023-04-18T13:39:19.249Z,99796.16
2023-04-18T13:42:04.567Z,99785.78
2023-04-18T13:44:48.559Z,99793.56
2023-04-18T13:47:32.552Z,99793.16
2023-04-18T13:50:16.618Z,99792.53
2023-04-18T13:53:01.993Z,99789.44
2023-04-18T13:55:46.018Z,99796.38
2023-04-18T13:58:29.927Z,99790.75
2023-04-18T14:01:14.199Z,99788.66
2023-04-18T14:03:58.254Z,99773.38
2023-04-18T14:06:42.458Z,99786.03
2023-04-18T14:09:28.327Z,99785.94
2023-04-18T14:12:12.540Z,99790.03
2023-04-18T14:14:56.370Z,99794.81
2023-04-18T14:17:40.397Z,99793.34
2023-04-18T14:20:24.402Z,99795.16
2023-04-18T14:23:08.165Z,99797.38
2023-04-18T14:25:53.357Z,99790.13
2023-04-18T14:28:37.216Z,99793.72
2023-04-18T14:31:21.197Z,99795.88
2023-04-18T14:34:05.684Z,99793.22
2023-04-18T14:36:49.481Z,99787.56
2023-04-18T14:39:33.400Z,99772.44
2023-04-18T14:42:19.965Z,99787.03
2023-04-18T14:45:05.262Z,99784.13
2023-04-18T14:47:49.270Z,99780.34
2023-04-18T14:50:33.187Z,99772.34
2023-04-18T14:53:17.126Z,99764.56
2023-04-18T14:56:01.229Z,99788.22
2023-04-18T14:58:46.634Z,99787.66
2023-04-18T15:01:30.473Z,99760.94
2023-04-18T15:04:14.915Z,99796.81
2023-04-18T15:06:59.039Z,99799.50
2023-04-18T15:09:42.981Z,99783.06
2023-04-18T15:12:26.860Z,99793.25
2023-04-18T15:15:12.935Z,99795.28
2023-04-18T15:17:56.866Z,99785.28
2023-04-18T15:20:41.083Z,99784.56
2023-04-18T15:23:24.962Z,99780.50
2023-04-18T15:26:08.914Z,99740.31
2023-04-18T15:28:55.635Z,99778.78
2023-04-18T15:31:40.862Z,99766.03
2023-04-18T15:34:25.616Z,99770.91
2023-04-18T15:37:09.600Z,99768.88
2023-04-18T15:39:53.605Z,99761.13
2023-04-18T15:42:37.543Z,99764.00
2023-04-18T15:45:21.954Z,99761.72
2023-04-18T15:48:07.980Z,99750.44
2023-04-18T15:50:52.281Z,99775.09
2023-04-18T15:53:36.219Z,99787.94
2023-04-18T15:56:20.013Z,99801.47
2023-04-18T15:59:06.065Z,99766.72
2023-04-18T16:01:50.195Z,99757.38
2023-04-18T16:04:36.118Z,99796.38
2023-04-18T16:07:20.329Z,99800.53
2023-04-18T16:10:04.458Z,99786.97
2023-04-18T16:12:48.862Z,99801.53
2023-04-18T16:15:33.111Z,99761.84
2023-04-18T16:18:17.280Z,99758.78
2023-04-18T16:21:03.169Z,99791.25
2023-04-18T16:23:46.943Z,99807.69
2023-04-18T16:26:30.880Z,99827.06
2023-04-18T16:29:14.735Z,99830.94
2023-04-18T16:31:58.744Z,99829.69
2023-04-18T16:34:42.590Z,99831.25
2023-04-18T16:37:27.930Z,99840.84
2023-04-18T16:40:12.424Z,99848.69
2023-04-18T16:42:56.290Z,99870.03
2023-04-18T16:45:40.269Z,99904.38
2023-04-18T16:48:24.402Z,99912.84
2023-04-18T16:51:08.476Z,99913.19
2023-04-18T16:53:53.653Z,99920.19
2023-04-18T16:56:37.708Z,99916.09
2023-04-18T16:59:21.606Z,99913.44
2023-04-18T17:02:05.681Z,99903.09
2023-04-18T17:04:49.677Z,99912.97
2023-04-18T17:07:33.578Z,99931.09
2023-04-18T17:10:19.244Z,99900.59
2023-04-18T17:13:04.632Z,99936.50
2023-04-18T17:15:48.459Z,99927.59
2023-04-18T17:18:32.335Z,99913.88
2023-04-18T17:21:16.238Z,99934.38
2023-04-18T17:24:03.599Z,99907.03
2023-04-18T17:26:49.310Z,99943.34
2023-04-18T17:29:33.346Z,99943.75
2023-04-18T17:32:17.766Z,99927.69
2023-04-18T17:35:04.355Z,99931.25
2023-04-18T17:37:50.609Z,99941.03
2023-04-18T17:40:35.333Z,99931.13
2023-04-18T17:43:20.821Z,99938.13
2023-04-18T17:46:04.730Z,99918.25
2023-04-18T17:48:48.577Z,99936.19
2023-04-18T17:51:32.495Z,99879.53
2023-04-18T17:54:16.549Z,99926.34
2023-04-18T17:57:00.382Z,99927.34
2023-04-18T17:59:45.731Z,99936.72
2023-04-18T18:02:29.701Z,99930.88
2023-04-18T18:05:16.727Z,99901.19
2023-04-18T18:08:01.492Z,99929.59
2023-04-18T18:10:47.118Z,99890.50
2023-04-18T18:13:31.170Z,99928.66
2023-04-18T18:16:16.494Z,99918.78
2023-04-18T18:19:00.494Z,99921.75
2023-04-18T18:21:44.536Z,99919.38
2023-04-18T18:24:28.412Z,99915.72
2023-04-18T18:27:12.494Z,99914.72
2023-04-18T18:29:56.518Z,99907.75
2023-04-18T18:32:41.970Z,99883.09
2023-04-18T18:35:25.898Z,99899.13
2023-04-18T18:38:10.262Z,99895.53
2023-04-18T18:40:54.179Z,99887.97
2023-04-18T18:43:38.168Z,99887.03
2023-04-18T18:46:22.320Z,99890.97
2023-04-18T18:49:08.339Z,99891.81
2023-04-18T18:51:52.266Z,99894.47
2023-04-18T18:54:36.430Z,99908.09
2023-04-18T18:57:20.908Z,99907.88
2023-04-18T19:00:05.340Z,99899.38
2023-04-18T19:02:49.931Z,99915.84
2023-04-18T19:05:36.006Z,99913.19
2023-04-18T19:08:20.171Z,99871.53
2023-04-18T19:11:04.630Z,99914.69
2023-04-18T19:13:49.023Z,99832.72
2023-04-18T19:16:34.454Z,99861.63
2023-04-18T19:19:18.812Z,99904.28
2023-04-18T19:22:04.649Z,99907.19
2023-04-18T19:24:49.646Z,99908.47
2023-04-18T19:27:34.138Z,99876.75
2023-04-18T19:30:18.345Z,99904.06
2023-04-18T19:33:02.962Z,99887.84
2023-04-18T19:35:47.299Z,99839.19
2023-04-18T19:38:34.204Z,99828.13
2023-04-18T19:41:18.396Z,99847.13
2023-04-18T19:44:02.481Z,99821.78
2023-04-18T19:46:46.868Z,99804.81
2023-04-18T19:49:31.532Z,99796.44
2023-04-18T19:52:16.898Z,99851.66
2023-04-18T19:55:02.678Z,99861.94
2023-04-18T19:57:47.713Z,99823.59
2023-04-18T20:00:32.013Z,99863.69
2023-04-18T20:03:17.310Z,99860.22
2023-04-18T20:06:01.552Z,99860.72
2023-04-18T20:08:46.130Z,99867.13
2023-04-18T20:11:31.517Z,99864.66
2023-04-18T20:14:15.325Z,99871.28
2023-04-18T20:16:59.192Z,99869.44
2023-04-18T20:19:43.109Z,99863.53
2023-04-18T20:22:27.355Z,99861.22
2023-04-18T20:25:11.337Z,99859.50
2023-04-18T20:27:56.585Z,99867.06
2023-04-18T20:30:40.575Z,99850.91
2023-04-18T20:33:24.495Z,99836.00
2023-04-18T20:36:08.558Z,99854.16
2023-04-18T20:38:52.450Z,99849.56
2023-04-18T20:41:37.035Z,99839.94
2023-04-18T20:44:22.333Z,99842.66
2023-04-18T20:47:06.443Z,99836.13
2023-04-18T20:49:50.512Z,99829.97
2023-04-18T20:52:34.273Z,99824.44
2023-04-18T20:55:18.144Z,99820.84
2023-04-18T20:58:02.049Z,99809.91
2023-04-18T21:00:48.362Z,99789.94
2023-04-18T21:03:32.479Z,99780.59
2023-04-18T21:06:16.550Z,99767.63
2023-04-18T21:09:00.360Z,99761.78
2023-04-18T21:11:44.177Z,99747.38
2023-04-18T21:14:27.984Z,99726.78
2023-04-18T21:17:17.386Z,99724.06
2023-04-18T21:20:01.318Z,99724.50
2023-04-18T21:22:46.905Z,99712.94
2023-04-18T21:25:30.581Z,99705.69
2023-04-18T21:28:14.444Z,99701.25
2023-04-18T21:30:58.203Z,99705.22
2023-04-18T21:33:43.395Z,99706.28
2023-04-18T21:36:28.610Z,99689.63
2023-04-18T21:39:12.502Z,99703.31
2023-04-18T21:41:57.276Z,99690.22
2023-04-18T21:44:41.310Z,99707.03
2023-04-18T21:47:25.993Z,99701.16
2023-04-18T21:50:12.332Z,99701.44
2023-04-18T21:52:56.153Z,99691.06
2023-04-18T21:55:39.980Z,99699.00
2023-04-18T21:58:23.827Z,99688.06
2023-04-18T22:01:07.877Z,99667.94
2023-04-18T22:03:52.167Z,99661.91
2023-04-18T22:06:37.560Z,99661.91
2023-04-18T22:09:21.480Z,99652.06
2023-04-18T22:12:05.971Z,99671.16
2023-04-18T22:14:49.684Z,99663.69
2023-04-18T22:17:34.134Z,99662.28
2023-04-18T22:20:18.577Z,99668.34
2023-04-18T22:23:04.399Z,99666.81
2023-04-18T22:25:48.158Z,99652.28
2023-04-18T22:28:32.463Z,99684.38
2023-04-18T22:31:16.357Z,99684.00
2023-04-18T22:34:00.327Z,99691.38
2023-04-18T22:36:45.641Z,99682.81
2023-04-18T22:39:31.193Z,99680.91
2023-04-18T22:42:15.094Z,99684.16
2023-04-18T22:44:58.973Z,99673.06
2023-04-18T22:47:42.834Z,99557.28
2023-04-18T22:50:27.462Z,99660.91
2023-04-18T22:53:11.463Z,99649.47
2023-04-18T22:55:56.554Z,99665.50
2023-04-18T22:58:40.324Z,99661.25
2023-04-18T23:01:24.125Z,99667.97
2023-04-18T23:04:08.377Z,99664.13
2023-04-18T23:06:52.357Z,99659.44
2023-04-18T23:09:36.171Z,99661.56
2023-04-18T23:12:22.030Z,99655.34
2023-04-18T23:15:06.811Z,99666.47
2023-04-18T23:17:53.142Z,99663.84
2023-04-18T23:20:37.978Z,99613.44
2023-04-18T23:23:21.805Z,99651.66
2023-04-18T23:26:13.768Z,99654.34
2023-04-18T23:28:59.142Z,99642.56
2023-04-18T23:31:43.221Z,99645.06
2023-04-18T23:34:27.275Z,99604.25
2023-04-18T23:37:11.298Z,99647.63
2023-04-18T23:39:55.421Z,99615.22
2023-04-18T23:42:39.453Z,99595.31
2023-04-18T23:45:25.691Z,99628.66
2023-04-18T23:48:09.711Z,99588.22
2023-04-18T23:50:53.967Z,99580.72
2023-04-18T23:53:38.067Z,99607.28
2023-04-18T23:56:23.320Z,99619.94
2023-04-18T23:59:08.211Z,99585.56
